sensor_id;sensor_type;location;lat;lon;timestamp;P1;durP1;ratioP1;P2;durP2;ratioP2
61570;SDS011;47463;49.884;10.010;2024-02-28T00:00:00;36.1;;;17.6;;
61570;SDS011;47463;49.884;10.010;2024-02-28T00:05:00;36.4;;;17.9;;
61570;SDS011;47463;49.884;10.010;2024-02-28T00:10:00;38.8;;;18.3;;
61570;SDS011;47463;49.884;10.010;2024-02-28T00:15:00;37.3;;;18.4;;
61570;SDS011;47463;49.884;10.010;2024-02-28T00:20:00;39.1;;;16.3;;
61570;SDS011;47463;49.884;10.010;2024-02-28T00:25:00;39.1;;;16.3;;
61570;SDS011;47463;49.884;10.010;2024-02-28T00:30:00;37.6;;;17.7;;
61570;SDS011;47463;49.884;10.010;2024-02-28T00:35:00;33.7;;;16.7;;
61570;SDS011;47463;49.884;10.010;2024-02-28T00:40:00;39.8;;;18.7;;
61570;SDS011;47463;49.884;10.010;2024-02-28T00:45:00;38.1;;;19.4;;
61570;SDS011;47463;49.884;10.010;2024-02-28T00:50:00;35.9;;;17.1;;
61570;SDS011;47463;49.884;10.010;2024-02-28T00:55:00;35.9;;;17.1;;
61570;SDS011;47463;49.884;10.010;2024-02-28T01:00:00;35.8;;;17.8;;
61570;SDS011;47463;49.884;10.010;2024-02-28T01:05:00;36.6;;;18.2;;
61570;SDS011;47463;49.884;10.010;2024-02-28T01:10:00;38.3;;;18.5;;
61570;SDS011;47463;49.884;10.010;2024-02-28T01:15:00;40.3;;;18.6;;
61570;SDS011;47463;49.884;10.010;2024-02-28T01:20:00;38.6;;;17.6;;
61570;SDS011;47463;49.884;10.010;2024-02-28T01:25:00;38.6;;;17.6;;
61570;SDS011;47463;49.884;10.010;2024-02-28T01:30:00;36.8;;;17.7;;
61570;SDS011;47463;49.884;10.010;2024-02-28T01:35:00;37.5;;;17.9;;
61570;SDS011;47463;49.884;10.010;2024-02-28T01:40:00;38.9;;;18.1;;
61570;SDS011;47463;49.884;10.010;2024-02-28T01:45:00;37.4;;;17.4;;
61570;SDS011;47463;49.884;10.010;2024-02-28T01:50:00;38.5;;;17.7;;
61570;SDS011;47463;49.884;10.010;2024-02-28T01:55:00;38.5;;;17.7;;
61570;SDS011;47463;49.884;10.010;2024-02-28T02:00:00;38.2;;;17.6;;
61570;SDS011;47463;49.884;10.010;2024-02-28T02:05:00;35.9;;;17.3;;
61570;SDS011;47463;49.884;10.010;2024-02-28T02:10:00;39.4;;;17.9;;
61570;SDS011;47463;49.884;10.010;2024-02-28T02:15:00;35.7;;;17.6;;
61570;SDS011;47463;49.884;10.010;2024-02-28T02:20:00;36.5;;;17.9;;
61570;SDS011;47463;49.884;10.010;2024-02-28T02:25:02;36.5;;;17.9;;
61570;SDS011;47463;49.884;10.010;2024-02-28T02:30:00;34.1;;;15.6;;
61570;SDS011;47463;49.884;10.010;2024-02-28T02:35:00;33.3;;;16.5;;
61570;SDS011;47463;49.884;10.010;2024-02-28T02:40:00;35.7;;;16.6;;
61570;SDS011;47463;49.884;10.010;2024-02-28T02:45:00;37.4;;;17.4;;
61570;SDS011;47463;49.884;10.010;2024-02-28T02:50:00;33.4;;;16.4;;
61570;SDS011;47463;49.884;10.010;2024-02-28T02:55:00;33.4;;;16.4;;
61570;SDS011;47463;49.884;10.010;2024-02-28T03:00:00;33.4;;;16.1;;
61570;SDS011;47463;49.884;10.010;2024-02-28T03:05:00;32.1;;;16.3;;
61570;SDS011;47463;49.884;10.010;2024-02-28T03:10:00;32.8;;;16.1;;
61570;SDS011;47463;49.884;10.010;2024-02-28T03:15:00;33.5;;;15.5;;
61570;SDS011;47463;49.884;10.010;2024-02-28T03:20:00;31.9;;;14.9;;
61570;SDS011;47463;49.884;10.010;2024-02-28T03:25:00;31.9;;;14.9;;
61570;SDS011;47463;49.884;10.010;2024-02-28T03:30:00;33.2;;;15.3;;
61570;SDS011;47463;49.884;10.010;2024-02-28T03:35:00;31.4;;;14.7;;
61570;SDS011;47463;49.884;10.010;2024-02-28T03:40:00;27.9;;;13.8;;
61570;SDS011;47463;49.884;10.010;2024-02-28T03:45:00;36.2;;;15.9;;
61570;SDS011;47463;49.884;10.010;2024-02-28T03:50:00;30.9;;;14.3;;
61570;SDS011;47463;49.884;10.010;2024-02-28T03:55:00;30.9;;;14.3;;
61570;SDS011;47463;49.884;10.010;2024-02-28T04:00:00;33.5;;;14;;
61570;SDS011;47463;49.884;10.010;2024-02-28T04:05:00;28.1;;;15;;
61570;SDS011;47463;49.884;10.010;2024-02-28T04:10:00;25.5;;;13.3;;
61570;SDS011;47463;49.884;10.010;2024-02-28T04:15:00;28.2;;;13.3;;
61570;SDS011;47463;49.884;10.010;2024-02-28T04:20:00;28.8;;;13.5;;
61570;SDS011;47463;49.884;10.010;2024-02-28T04:25:00;28.8;;;13.5;;
61570;SDS011;47463;49.884;10.010;2024-02-28T04:30:00;25.6;;;13.2;;
61570;SDS011;47463;49.884;10.010;2024-02-28T04:35:00;27.6;;;13.9;;
61570;SDS011;47463;49.884;10.010;2024-02-28T04:40:00;27.3;;;13.3;;
61570;SDS011;47463;49.884;10.010;2024-02-28T04:45:00;28.4;;;14.7;;
61570;SDS011;47463;49.884;10.010;2024-02-28T04:50:00;27.9;;;13.8;;
61570;SDS011;47463;49.884;10.010;2024-02-28T04:55:00;27.9;;;13.8;;
61570;SDS011;47463;49.884;10.010;2024-02-28T05:00:00;29.1;;;14.3;;
61570;SDS011;47463;49.884;10.010;2024-02-28T05:05:00;24;;;12.9;;
61570;SDS011;47463;49.884;10.010;2024-02-28T05:10:00;26.3;;;13.3;;
61570;SDS011;47463;49.884;10.010;2024-02-28T05:15:00;25.8;;;13.8;;
61570;SDS011;47463;49.884;10.010;2024-02-28T05:20:00;29.1;;;14.5;;
61570;SDS011;47463;49.884;10.010;2024-02-28T05:25:00;29.1;;;14.5;;
61570;SDS011;47463;49.884;10.010;2024-02-28T05:30:00;30.1;;;15.4;;
61570;SDS011;47463;49.884;10.010;2024-02-28T05:35:00;23.2;;;13.2;;
61570;SDS011;47463;49.884;10.010;2024-02-28T05:40:00;24.5;;;13.1;;
61570;SDS011;47463;49.884;10.010;2024-02-28T05:45:00;28.1;;;14.1;;
61570;SDS011;47463;49.884;10.010;2024-02-28T05:50:00;28.2;;;14.3;;
61570;SDS011;47463;49.884;10.010;2024-02-28T05:55:00;28.2;;;14.3;;
61570;SDS011;47463;49.884;10.010;2024-02-28T06:00:00;27.2;;;14.3;;
61570;SDS011;47463;49.884;10.010;2024-02-28T06:05:00;26.3;;;13.9;;
61570;SDS011;47463;49.884;10.010;2024-02-28T06:10:00;24;;;13.1;;
61570;SDS011;47463;49.884;10.010;2024-02-28T06:15:00;27.7;;;13.1;;
61570;SDS011;47463;49.884;10.010;2024-02-28T06:20:00;29.4;;;14.3;;
61570;SDS011;47463;49.884;10.010;2024-02-28T06:25:00;29.4;;;14.3;;
61570;SDS011;47463;49.884;10.010;2024-02-28T06:30:00;23.8;;;13.4;;
61570;SDS011;47463;49.884;10.010;2024-02-28T06:35:00;25.5;;;13.4;;
61570;SDS011;47463;49.884;10.010;2024-02-28T06:40:00;24.5;;;12.6;;
61570;SDS011;47463;49.884;10.010;2024-02-28T06:45:00;27.9;;;13.4;;
61570;SDS011;47463;49.884;10.010;2024-02-28T06:50:00;25.8;;;12.9;;
61570;SDS011;47463;49.884;10.010;2024-02-28T06:55:00;25.8;;;12.9;;
61570;SDS011;47463;49.884;10.010;2024-02-28T07:00:00;24.8;;;12.2;;
61570;SDS011;47463;49.884;10.010;2024-02-28T07:05:00;22;;;12;;
61570;SDS011;47463;49.884;10.010;2024-02-28T07:10:02;22.5;;;11.6;;
61570;SDS011;47463;49.884;10.010;2024-02-28T07:15:00;24.2;;;12.2;;
61570;SDS011;47463;49.884;10.010;2024-02-28T07:20:00;21;;;10.8;;
61570;SDS011;47463;49.884;10.010;2024-02-28T07:25:00;21;;;10.8;;
61570;SDS011;47463;49.884;10.010;2024-02-28T07:30:00;19.1;;;10.7;;
61570;SDS011;47463;49.884;10.010;2024-02-28T07:35:00;17.5;;;9.9;;
61570;SDS011;47463;49.884;10.010;2024-02-28T07:40:00;17;;;9.2;;
61570;SDS011;47463;49.884;10.010;2024-02-28T07:45:00;16.6;;;9.3;;
61570;SDS011;47463;49.884;10.010;2024-02-28T07:50:00;16.5;;;9;;
61570;SDS011;47463;49.884;10.010;2024-02-28T07:55:00;16.5;;;9;;
61570;SDS011;47463;49.884;10.010;2024-02-28T08:00:00;15.4;;;8.8;;
61570;SDS011;47463;49.884;10.010;2024-02-28T08:05:00;15.6;;;9.1;;
61570;SDS011;47463;49.884;10.010;2024-02-28T08:10:00;15.2;;;9;;
61570;SDS011;47463;49.884;10.010;2024-02-28T08:15:00;14.2;;;8.3;;
61570;SDS011;47463;49.884;10.010;2024-02-28T08:20:00;10.8;;;6.6;;
61570;SDS011;47463;49.884;10.010;2024-02-28T08:25:00;10.8;;;6.6;;
61570;SDS011;47463;49.884;10.010;2024-02-28T08:30:00;11.1;;;7.5;;
61570;SDS011;47463;49.884;10.010;2024-02-28T08:35:00;12.7;;;8.7;;
61570;SDS011;47463;49.884;10.010;2024-02-28T08:40:00;13.6;;;8.9;;
61570;SDS011;47463;49.884;10.010;2024-02-28T08:45:00;11.2;;;7.2;;
61570;SDS011;47463;49.884;10.010;2024-02-28T08:50:00;11;;;8.1;;
61570;SDS011;47463;49.884;10.010;2024-02-28T08:55:00;11;;;8.1;;
61570;SDS011;47463;49.884;10.010;2024-02-28T09:00:00;9.6;;;8.2;;
61570;SDS011;47463;49.884;10.010;2024-02-28T09:05:00;13.9;;;9;;
61570;SDS011;47463;49.884;10.010;2024-02-28T09:10:00;11.8;;;8.9;;
61570;SDS011;47463;49.884;10.010;2024-02-28T09:15:00;11;;;8.9;;
61570;SDS011;47463;49.884;10.010;2024-02-28T09:20:00;9.5;;;8.3;;
61570;SDS011;47463;49.884;10.010;2024-02-28T09:25:00;9.5;;;8.3;;
61570;SDS011;47463;49.884;10.010;2024-02-28T09:30:00;11.4;;;9.5;;
61570;SDS011;47463;49.884;10.010;2024-02-28T09:35:00;10.8;;;8.9;;
61570;SDS011;47463;49.884;10.010;2024-02-28T09:40:00;12.1;;;8.6;;
61570;SDS011;47463;49.884;10.010;2024-02-28T09:45:00;12.5;;;8.8;;
61570;SDS011;47463;49.884;10.010;2024-02-28T09:50:00;12.4;;;8.3;;
61570;SDS011;47463;49.884;10.010;2024-02-28T09:55:00;12.4;;;8.3;;
61570;SDS011;47463;49.884;10.010;2024-02-28T10:00:00;15.1;;;9.3;;
61570;SDS011;47463;49.884;10.010;2024-02-28T10:05:00;13.5;;;7.6;;
61570;SDS011;47463;49.884;10.010;2024-02-28T10:10:00;13.5;;;7.5;;
61570;SDS011;47463;49.884;10.010;2024-02-28T10:15:00;13.4;;;8;;
61570;SDS011;47463;49.884;10.010;2024-02-28T10:20:00;11.4;;;7.2;;
61570;SDS011;47463;49.884;10.010;2024-02-28T10:25:00;11.4;;;7.2;;
61570;SDS011;47463;49.884;10.010;2024-02-28T10:30:00;11.3;;;7.9;;
61570;SDS011;47463;49.884;10.010;2024-02-28T10:35:00;12.8;;;7.7;;
61570;SDS011;47463;49.884;10.010;2024-02-28T10:40:00;11.4;;;7;;
61570;SDS011;47463;49.884;10.010;2024-02-28T10:45:00;9.6;;;6.4;;
61570;SDS011;47463;49.884;10.010;2024-02-28T10:50:00;12.8;;;7.1;;
61570;SDS011;47463;49.884;10.010;2024-02-28T10:55:00;12.8;;;7.1;;
61570;SDS011;47463;49.884;10.010;2024-02-28T11:00:00;9.5;;;6;;
61570;SDS011;47463;49.884;10.010;2024-02-28T11:05:00;8.8;;;5.5;;
61570;SDS011;47463;49.884;10.010;2024-02-28T11:10:03;8.5;;;4.5;;
61570;SDS011;47463;49.884;10.010;2024-02-28T11:15:00;8.3;;;4.3;;
61570;SDS011;47463;49.884;10.010;2024-02-28T11:20:00;6.9;;;4.4;;
61570;SDS011;47463;49.884;10.010;2024-02-28T11:25:00;6.9;;;4.4;;
61570;SDS011;47463;49.884;10.010;2024-02-28T11:30:00;7.8;;;5.2;;
61570;SDS011;47463;49.884;10.010;2024-02-28T11:35:00;8.8;;;5.5;;
61570;SDS011;47463;49.884;10.010;2024-02-28T11:40:00;9.1;;;5.2;;
61570;SDS011;47463;49.884;10.010;2024-02-28T11:45:00;8.3;;;4.7;;
61570;SDS011;47463;49.884;10.010;2024-02-28T11:50:00;7.7;;;4.5;;
61570;SDS011;47463;49.884;10.010;2024-02-28T11:55:00;7.7;;;4.5;;
61570;SDS011;47463;49.884;10.010;2024-02-28T12:00:02;7.6;;;4.8;;
61570;SDS011;47463;49.884;10.010;2024-02-28T12:05:00;7.4;;;4.2;;
61570;SDS011;47463;49.884;10.010;2024-02-28T12:10:00;8.6;;;4.6;;
61570;SDS011;47463;49.884;10.010;2024-02-28T12:15:00;6.6;;;4;;
61570;SDS011;47463;49.884;10.010;2024-02-28T12:20:00;6;;;3.8;;
61570;SDS011;47463;49.884;10.010;2024-02-28T12:25:00;6;;;3.8;;
61570;SDS011;47463;49.884;10.010;2024-02-28T12:30:00;7.5;;;3.9;;
61570;SDS011;47463;49.884;10.010;2024-02-28T12:35:00;5.9;;;3.6;;
61570;SDS011;47463;49.884;10.010;2024-02-28T12:40:00;5.8;;;3.9;;
61570;SDS011;47463;49.884;10.010;2024-02-28T12:45:00;7.5;;;4.3;;
61570;SDS011;47463;49.884;10.010;2024-02-28T12:50:00;6.4;;;4;;
61570;SDS011;47463;49.884;10.010;2024-02-28T12:55:00;6.4;;;4;;
61570;SDS011;47463;49.884;10.010;2024-02-28T13:00:00;10.9;;;5.1;;
61570;SDS011;47463;49.884;10.010;2024-02-28T13:05:00;8.5;;;5.1;;
61570;SDS011;47463;49.884;10.010;2024-02-28T13:10:00;8.3;;;4.7;;
61570;SDS011;47463;49.884;10.010;2024-02-28T13:15:00;8.3;;;5.3;;
61570;SDS011;47463;49.884;10.010;2024-02-28T13:20:00;9.9;;;4.9;;
61570;SDS011;47463;49.884;10.010;2024-02-28T13:25:00;9.9;;;4.9;;
61570;SDS011;47463;49.884;10.010;2024-02-28T13:30:00;8.7;;;5.7;;
61570;SDS011;47463;49.884;10.010;2024-02-28T13:35:00;7.8;;;5;;
61570;SDS011;47463;49.884;10.010;2024-02-28T13:40:00;9.2;;;6.2;;
61570;SDS011;47463;49.884;10.010;2024-02-28T13:45:00;9.6;;;6;;
61570;SDS011;47463;49.884;10.010;2024-02-28T13:50:00;8.2;;;5;;
61570;SDS011;47463;49.884;10.010;2024-02-28T13:55:00;8.2;;;5;;
61570;SDS011;47463;49.884;10.010;2024-02-28T14:00:00;8.2;;;5.2;;
61570;SDS011;47463;49.884;10.010;2024-02-28T14:05:00;9.3;;;5.2;;
61570;SDS011;47463;49.884;10.010;2024-02-28T14:10:00;9.3;;;5.2;;
61570;SDS011;47463;49.884;10.010;2024-02-28T14:15:00;8.3;;;4.6;;
61570;SDS011;47463;49.884;10.010;2024-02-28T14:20:00;9.1;;;5;;
61570;SDS011;47463;49.884;10.010;2024-02-28T14:25:00;9.1;;;5;;
61570;SDS011;47463;49.884;10.010;2024-02-28T14:30:00;7.2;;;4.5;;
61570;SDS011;47463;49.884;10.010;2024-02-28T14:35:00;9.7;;;5.1;;
61570;SDS011;47463;49.884;10.010;2024-02-28T14:40:00;7.9;;;4.5;;
61570;SDS011;47463;49.884;10.010;2024-02-28T14:45:00;7.9;;;4.7;;
61570;SDS011;47463;49.884;10.010;2024-02-28T14:50:00;9.2;;;4.5;;
61570;SDS011;47463;49.884;10.010;2024-02-28T14:55:00;9.2;;;4.5;;
61570;SDS011;47463;49.884;10.010;2024-02-28T15:00:00;6.1;;;4.2;;
61570;SDS011;47463;49.884;10.010;2024-02-28T15:05:00;6.4;;;4.1;;
61570;SDS011;47463;49.884;10.010;2024-02-28T15:10:00;7.9;;;4.3;;
61570;SDS011;47463;49.884;10.010;2024-02-28T15:15:00;7.6;;;4.2;;
61570;SDS011;47463;49.884;10.010;2024-02-28T15:20:00;6.6;;;3.9;;
61570;SDS011;47463;49.884;10.010;2024-02-28T15:25:00;6.6;;;3.9;;
61570;SDS011;47463;49.884;10.010;2024-02-28T15:30:00;7.4;;;4.3;;
61570;SDS011;47463;49.884;10.010;2024-02-28T15:35:00;8.3;;;4.6;;
61570;SDS011;47463;49.884;10.010;2024-02-28T15:40:00;7.1;;;4.1;;
61570;SDS011;47463;49.884;10.010;2024-02-28T15:45:00;7.5;;;4.8;;
61570;SDS011;47463;49.884;10.010;2024-02-28T15:50:01;6.5;;;4.1;;
61570;SDS011;47463;49.884;10.010;2024-02-28T15:55:00;6.5;;;4.1;;
61570;SDS011;47463;49.884;10.010;2024-02-28T16:00:00;6.6;;;4.5;;
61570;SDS011;47463;49.884;10.010;2024-02-28T16:05:00;7;;;4.3;;
61570;SDS011;47463;49.884;10.010;2024-02-28T16:10:00;8.8;;;4.2;;
61570;SDS011;47463;49.884;10.010;2024-02-28T16:15:00;6.3;;;4.2;;
61570;SDS011;47463;49.884;10.010;2024-02-28T16:20:00;7.1;;;4.2;;
61570;SDS011;47463;49.884;10.010;2024-02-28T16:25:00;7.1;;;4.2;;
61570;SDS011;47463;49.884;10.010;2024-02-28T16:30:00;10.8;;;5.3;;
61570;SDS011;47463;49.884;10.010;2024-02-28T16:35:00;8.4;;;4.6;;
61570;SDS011;47463;49.884;10.010;2024-02-28T16:40:00;9.6;;;4.7;;
61570;SDS011;47463;49.884;10.010;2024-02-28T16:45:00;7.5;;;4.4;;
61570;SDS011;47463;49.884;10.010;2024-02-28T16:50:00;8.5;;;5.2;;
61570;SDS011;47463;49.884;10.010;2024-02-28T16:55:00;8.5;;;5.2;;
61570;SDS011;47463;49.884;10.010;2024-02-28T17:00:00;8.6;;;4.8;;
61570;SDS011;47463;49.884;10.010;2024-02-28T17:05:00;7.7;;;4.8;;
61570;SDS011;47463;49.884;10.010;2024-02-28T17:10:00;8.5;;;5;;
61570;SDS011;47463;49.884;10.010;2024-02-28T17:15:00;9.5;;;5.1;;
61570;SDS011;47463;49.884;10.010;2024-02-28T17:20:00;8.2;;;4.1;;
61570;SDS011;47463;49.884;10.010;2024-02-28T17:25:00;8.2;;;4.1;;
61570;SDS011;47463;49.884;10.010;2024-02-28T17:30:00;7.1;;;4.1;;
61570;SDS011;47463;49.884;10.010;2024-02-28T17:35:00;12;;;5.4;;
61570;SDS011;47463;49.884;10.010;2024-02-28T17:40:00;9.7;;;4.7;;
61570;SDS011;47463;49.884;10.010;2024-02-28T17:45:00;8.6;;;4.3;;
61570;SDS011;47463;49.884;10.010;2024-02-28T17:50:00;6.7;;;4.1;;
61570;SDS011;47463;49.884;10.010;2024-02-28T17:55:00;6.7;;;4.1;;
61570;SDS011;47463;49.884;10.010;2024-02-28T18:00:00;8.2;;;4.3;;
61570;SDS011;47463;49.884;10.010;2024-02-28T18:05:00;7.6;;;4.4;;
61570;SDS011;47463;49.884;10.010;2024-02-28T18:10:00;7;;;4.3;;
61570;SDS011;47463;49.884;10.010;2024-02-28T18:15:00;6.9;;;4.7;;
61570;SDS011;47463;49.884;10.010;2024-02-28T18:20:00;7.1;;;4.5;;
61570;SDS011;47463;49.884;10.010;2024-02-28T18:25:00;7.1;;;4.5;;
61570;SDS011;47463;49.884;10.010;2024-02-28T18:30:00;13.8;;;4.9;;
61570;SDS011;47463;49.884;10.010;2024-02-28T18:35:00;8;;;4.8;;
61570;SDS011;47463;49.884;10.010;2024-02-28T18:40:00;10.7;;;5.7;;
61570;SDS011;47463;49.884;10.010;2024-02-28T18:45:00;9.3;;;5.7;;
61570;SDS011;47463;49.884;10.010;2024-02-28T18:50:00;12.1;;;6.1;;
61570;SDS011;47463;49.884;10.010;2024-02-28T18:55:00;12.1;;;6.1;;
61570;SDS011;47463;49.884;10.010;2024-02-28T19:00:00;15.5;;;8.2;;
61570;SDS011;47463;49.884;10.010;2024-02-28T19:05:00;17.5;;;8.4;;
61570;SDS011;47463;49.884;10.010;2024-02-28T19:10:00;17.8;;;9;;
61570;SDS011;47463;49.884;10.010;2024-02-28T19:15:00;17;;;8.7;;
61570;SDS011;47463;49.884;10.010;2024-02-28T19:20:00;18.7;;;8.3;;
61570;SDS011;47463;49.884;10.010;2024-02-28T19:25:00;18.7;;;8.3;;
61570;SDS011;47463;49.884;10.010;2024-02-28T19:30:00;11.7;;;7.2;;
61570;SDS011;47463;49.884;10.010;2024-02-28T19:35:00;13;;;6.7;;
61570;SDS011;47463;49.884;10.010;2024-02-28T19:40:00;20.1;;;7.5;;
61570;SDS011;47463;49.884;10.010;2024-02-28T19:45:00;14.7;;;7.4;;
61570;SDS011;47463;49.884;10.010;2024-02-28T19:50:01;14.4;;;7.4;;
61570;SDS011;47463;49.884;10.010;2024-02-28T19:55:00;14.4;;;7.4;;
61570;SDS011;47463;49.884;10.010;2024-02-28T20:00:00;17.3;;;9.1;;
61570;SDS011;47463;49.884;10.010;2024-02-28T20:05:00;17.6;;;9.4;;
61570;SDS011;47463;49.884;10.010;2024-02-28T20:10:00;17.9;;;9.3;;
61570;SDS011;47463;49.884;10.010;2024-02-28T20:15:00;18.9;;;10.8;;
61570;SDS011;47463;49.884;10.010;2024-02-28T20:20:00;22.3;;;11.1;;
61570;SDS011;47463;49.884;10.010;2024-02-28T20:25:00;22.3;;;11.1;;
61570;SDS011;47463;49.884;10.010;2024-02-28T20:30:00;25;;;12.7;;
61570;SDS011;47463;49.884;10.010;2024-02-28T20:35:00;28.4;;;14.7;;
61570;SDS011;47463;49.884;10.010;2024-02-28T20:40:00;27.1;;;14.4;;
61570;SDS011;47463;49.884;10.010;2024-02-28T20:45:00;32;;;15.3;;
61570;SDS011;47463;49.884;10.010;2024-02-28T20:50:00;30.2;;;15.7;;
61570;SDS011;47463;49.884;10.010;2024-02-28T20:55:00;30.2;;;15.7;;
61570;SDS011;47463;49.884;10.010;2024-02-28T21:00:00;31;;;15.9;;
61570;SDS011;47463;49.884;10.010;2024-02-28T21:05:00;31.6;;;16;;
61570;SDS011;47463;49.884;10.010;2024-02-28T21:10:00;36.3;;;18.3;;
61570;SDS011;47463;49.884;10.010;2024-02-28T21:15:00;34.3;;;17.4;;
61570;SDS011;47463;49.884;10.010;2024-02-28T21:20:00;32.9;;;16.6;;
61570;SDS011;47463;49.884;10.010;2024-02-28T21:25:00;32.9;;;16.6;;
61570;SDS011;47463;49.884;10.010;2024-02-28T21:30:00;32.1;;;16.5;;
61570;SDS011;47463;49.884;10.010;2024-02-28T21:35:00;36.8;;;18;;
61570;SDS011;47463;49.884;10.010;2024-02-28T21:40:00;37.7;;;17.4;;
61570;SDS011;47463;49.884;10.010;2024-02-28T21:45:00;33.8;;;16.6;;
61570;SDS011;47463;49.884;10.010;2024-02-28T21:50:00;35.1;;;17.6;;
61570;SDS011;47463;49.884;10.010;2024-02-28T21:55:01;35.1;;;17.6;;
61570;SDS011;47463;49.884;10.010;2024-02-28T22:00:00;37.1;;;17.8;;
61570;SDS011;47463;49.884;10.010;2024-02-28T22:05:00;36.4;;;17.5;;
61570;SDS011;47463;49.884;10.010;2024-02-28T22:10:00;35.9;;;16.7;;
61570;SDS011;47463;49.884;10.010;2024-02-28T22:15:00;33.8;;;16.3;;
61570;SDS011;47463;49.884;10.010;2024-02-28T22:20:00;33.6;;;16.6;;
61570;SDS011;47463;49.884;10.010;2024-02-28T22:25:00;33.6;;;16.6;;
61570;SDS011;47463;49.884;10.010;2024-02-28T22:30:00;32.7;;;16.3;;
61570;SDS011;47463;49.884;10.010;2024-02-28T22:35:00;32.8;;;15.9;;
61570;SDS011;47463;49.884;10.010;2024-02-28T22:40:00;33.6;;;16.1;;
61570;SDS011;47463;49.884;10.010;2024-02-28T22:45:00;34.6;;;15.6;;
61570;SDS011;47463;49.884;10.010;2024-02-28T22:50:00;29.8;;;15;;
61570;SDS011;47463;49.884;10.010;2024-02-28T22:55:00;29.8;;;15;;
61570;SDS011;47463;49.884;10.010;2024-02-28T23:00:00;32.9;;;15.5;;
61570;SDS011;47463;49.884;10.010;2024-02-28T23:05:00;30.2;;;15.3;;
61570;SDS011;47463;49.884;10.010;2024-02-28T23:10:00;28.1;;;14.4;;
61570;SDS011;47463;49.884;10.010;2024-02-28T23:15:00;29.8;;;15;;
61570;SDS011;47463;49.884;10.010;2024-02-28T23:20:00;29.2;;;14.4;;
61570;SDS011;47463;49.884;10.010;2024-02-28T23:25:00;29.2;;;14.4;;
61570;SDS011;47463;49.884;10.010;2024-02-28T23:30:00;29.4;;;14.7;;
61570;SDS011;47463;49.884;10.010;2024-02-28T23:35:00;30.7;;;14.9;;
61570;SDS011;47463;49.884;10.010;2024-02-28T23:40:00;34.2;;;16.5;;
61570;SDS011;47463;49.884;10.010;2024-02-28T23:45:00;31.1;;;15.2;;
61570;SDS011;47463;49.884;10.010;2024-02-28T23:50:00;35.8;;;16.6;;
61570;SDS011;47463;49.884;10.010;2024-02-28T23:55:00;35.8;;;16.6;;
